Time;durP1;ratioP1;P1;durP2;ratioP2;P2;SDS_P1;SDS_P2;PMS_P1;PMS_P2;Temp;Humidity;BMP_temperature;BMP_pressure;BME280_temperature;BME280_humidity;BME280_pressure;Samples;Min_cycle;Max_cycle;Signal;HPM_P1;HPM_P2
2022/07/21 00:00:26;;;;;;;6.68;6.38;;;;;;;-143.83;100.00;62900.06;5112626;28;20038;-61
2022/07/21 00:02:53;;;;;;;6.70;6.40;;;;;;;-143.83;100.00;62900.06;5112361;28;20390;-61
2022/07/21 00:05:19;;;;;;;6.65;6.35;;;;;;;-143.83;100.00;62900.06;5092341;28;20081;-61
2022/07/21 00:07:45;;;;;;;6.65;6.35;;;;;;;-143.83;100.00;62900.06;5108362;27;20027;-61
2022/07/21 00:10:12;;;;;;;6.80;6.50;;;;;;;-143.83;100.00;62900.06;5112425;28;20062;-61
2022/07/21 00:12:37;;;;;;;6.70;6.40;;;;;;;-143.83;100.00;62900.06;5112665;28;20027;-61
2022/07/21 00:15:05;;;;;;;6.60;6.30;;;;;;;-143.83;100.00;62900.06;5112266;28;20482;-61
2022/07/21 00:17:30;;;;;;;6.47;6.18;;;;;;;-143.83;100.00;62900.06;5112357;28;20023;-62
2022/07/21 00:19:56;;;;;;;6.60;6.30;;;;;;;-143.83;100.00;62900.06;5112350;28;20536;-61
2022/07/21 00:22:22;;;;;;;6.70;6.40;;;;;;;-143.83;100.00;62900.06;5111063;28;20063;-61
2022/07/21 00:24:47;;;;;;;6.50;6.20;;;;;;;-143.83;100.00;62900.06;5112505;28;20024;-61
2022/07/21 00:27:13;;;;;;;6.43;6.15;;;;;;;-143.83;100.00;62900.06;5112086;28;20520;-61
2022/07/21 00:29:38;;;;;;;6.53;6.22;;;;;;;-143.83;100.00;62900.06;5114289;28;20055;-61
2022/07/21 00:32:05;;;;;;;6.70;6.40;;;;;;;-143.83;100.00;62900.06;5116484;28;20099;-61
2022/07/21 00:34:31;;;;;;;6.70;6.40;;;;;;;-143.83;100.00;62900.06;5105519;28;20043;-60
2022/07/21 00:36:57;;;;;;;6.63;6.32;;;;;;;-143.83;100.00;62900.06;5116691;28;20024;-61
2022/07/21 00:39:23;;;;;;;6.78;6.47;;;;;;;-143.83;100.00;62900.06;5116109;27;20099;-60
2022/07/21 00:41:48;;;;;;;6.70;6.40;;;;;;;-143.83;100.00;62900.06;5115423;28;20050;-62
2022/07/21 00:44:26;;;;;;;6.45;6.15;;;;;;;-143.83;100.00;62900.06;5116625;28;20033;-61
2022/07/21 00:46:52;;;;;;;6.68;6.38;;;;;;;-143.83;100.00;62900.06;5116217;28;20035;-61
2022/07/21 00:49:19;;;;;;;6.70;6.40;;;;;;;-143.83;100.00;62900.06;5116164;28;20027;-61
2022/07/21 00:51:45;;;;;;;6.60;6.30;;;;;;;-143.83;100.00;62900.06;5115134;28;20036;-62
2022/07/21 00:54:11;;;;;;;6.60;6.30;;;;;;;-143.83;100.00;62900.06;5116175;28;20015;-62
2022/07/21 00:56:36;;;;;;;6.40;6.10;;;;;;;-143.83;100.00;62900.06;5116175;28;20416;-62
2022/07/21 00:59:02;;;;;;;6.57;6.28;;;;;;;-143.83;100.00;62900.06;5112717;27;20076;-61
2022/07/21 01:01:28;;;;;;;6.60;6.30;;;;;;;-143.83;100.00;62900.06;5116004;28;20035;-61
2022/07/21 01:03:54;;;;;;;6.60;6.30;;;;;;;-143.83;100.00;62900.06;5102200;28;20031;-61
2022/07/21 01:06:19;;;;;;;6.50;6.20;;;;;;;-143.83;100.00;62900.06;5107636;28;20016;-62
2022/07/21 01:08:45;;;;;;;6.50;6.20;;;;;;;-143.83;100.00;62900.06;5115901;28;20488;-62
2022/07/21 01:11:11;;;;;;;6.60;6.30;;;;;;;-143.83;100.00;62900.06;5115793;28;20034;-62
2022/07/21 01:13:41;;;;;;;6.50;6.20;;;;;;;-143.83;100.00;62900.06;5115746;28;20020;-61
2022/07/21 01:16:08;;;;;;;6.78;6.47;;;;;;;-143.83;100.00;62900.06;5107667;27;20059;-62
2022/07/21 01:18:33;;;;;;;6.50;6.20;;;;;;;-143.83;100.00;62900.06;5114473;28;20028;-61
2022/07/21 01:21:03;;;;;;;6.32;6.03;;;;;;;-143.83;100.00;62900.06;5115725;28;20026;-62
2022/07/21 01:23:29;;;;;;;6.55;6.25;;;;;;;-143.83;100.00;62900.06;5104570;27;20055;-61
2022/07/21 01:25:55;;;;;;;6.68;6.38;;;;;;;-143.83;100.00;62900.06;5112613;28;20023;-62
2022/07/21 01:28:20;;;;;;;6.60;6.30;;;;;;;-143.83;100.00;62900.06;5115328;28;20092;-62
2022/07/21 01:30:46;;;;;;;6.50;6.20;;;;;;;-143.83;100.00;62900.06;5115037;28;20028;-61
2022/07/21 01:33:11;;;;;;;6.50;6.20;;;;;;;-143.83;100.00;62900.06;5116332;27;20087;-61
2022/07/21 01:35:37;;;;;;;6.70;6.40;;;;;;;-143.83;100.00;62900.06;5115449;28;20038;-62
2022/07/21 01:38:03;;;;;;;6.68;6.38;;;;;;;-143.83;100.00;62900.06;5115503;28;20019;-62
2022/07/21 01:43:12;;;;;;;6.63;6.32;;;;;;;-143.83;100.00;62900.06;5115340;28;20110;-62
2022/07/21 01:45:41;;;;;;;6.60;6.30;;;;;;;-143.83;100.00;62900.06;5115086;28;20111;-62
2022/07/21 01:48:07;;;;;;;6.70;6.40;;;;;;;-143.83;100.00;62900.06;5106906;28;20111;-62
2022/07/21 01:50:32;;;;;;;6.68;6.38;;;;;;;-143.83;100.00;62900.06;5115777;27;20117;-61
2022/07/21 01:52:58;;;;;;;6.50;6.20;;;;;;;-143.83;100.00;62900.06;5114959;28;20297;-61
2022/07/21 01:55:26;;;;;;;6.30;6.05;;;;;;;-143.83;100.00;62900.06;5114992;28;20031;-62
2022/07/21 01:57:52;;;;;;;6.45;6.15;;;;;;;-143.83;100.00;62900.06;5114526;28;20092;-61
2022/07/21 02:00:18;;;;;;;6.47;6.18;;;;;;;-143.83;100.00;62900.06;5115334;28;20444;-61
2022/07/21 02:02:44;;;;;;;6.43;6.13;;;;;;;-143.83;100.00;62900.06;5104931;28;20023;-62
2022/07/21 02:05:09;;;;;;;6.78;6.47;;;;;;;-143.83;100.00;62900.06;5114449;28;20031;-62
2022/07/21 02:07:35;;;;;;;6.40;6.10;;;;;;;-143.83;100.00;62900.06;5115251;27;20055;-62
2022/07/21 02:10:00;;;;;;;6.90;6.60;;;;;;;-143.83;100.00;62900.06;5128175;27;20027;-61
2022/07/21 02:12:26;;;;;;;6.80;6.50;;;;;;;-143.83;100.00;62900.06;5113484;28;20051;-62
2022/07/21 02:14:52;;;;;;;6.60;6.30;;;;;;;-143.83;100.00;62900.06;5105539;28;20016;-62
2022/07/21 02:17:17;;;;;;;6.65;6.35;;;;;;;-143.83;100.00;62900.06;5114519;28;20416;-62
2022/07/21 02:19:43;;;;;;;6.50;6.20;;;;;;;-143.83;100.00;62900.06;5114303;28;20024;-61
2022/07/21 02:22:08;;;;;;;6.75;6.45;;;;;;;-143.83;100.00;62900.06;5098525;28;20027;-60
2022/07/21 02:24:34;;;;;;;6.80;6.50;;;;;;;-143.83;100.00;62900.06;5107033;27;20028;-62
2022/07/21 02:27:00;;;;;;;6.68;6.38;;;;;;;-143.83;100.00;62900.06;5110778;28;20435;-62
2022/07/21 02:29:26;;;;;;;6.70;6.40;;;;;;;-143.83;100.00;62900.06;5108468;28;20020;-62
2022/07/21 02:31:52;;;;;;;6.68;6.38;;;;;;;-143.83;100.00;62900.06;5093866;28;20028;-61
2022/07/21 02:34:17;;;;;;;6.80;6.50;;;;;;;-143.83;100.00;62900.06;5112608;28;20031;-62
2022/07/21 02:36:43;;;;;;;6.60;6.30;;;;;;;-143.83;100.00;62900.06;5114202;28;20031;-61
2022/07/21 02:39:08;;;;;;;6.60;6.30;;;;;;;-143.83;100.00;62900.06;5113687;28;20498;-62
2022/07/21 02:41:34;;;;;;;6.65;6.35;;;;;;;-143.83;100.00;62900.06;5123156;27;20050;-61
2022/07/21 02:43:59;;;;;;;6.50;6.20;;;;;;;-143.83;100.00;62900.06;5116042;27;20098;-62
2022/07/21 02:46:25;;;;;;;6.18;5.97;;;;;;;-143.83;100.00;62900.06;5117782;27;20031;-61
2022/07/21 02:48:50;;;;;;;6.60;6.30;;;;;;;-143.83;100.00;62900.06;5128955;27;20032;-61
2022/07/21 02:51:16;;;;;;;6.45;6.15;;;;;;;-143.83;100.00;62900.06;5106885;28;20031;-61
2022/07/21 02:53:41;;;;;;;6.90;6.60;;;;;;;-143.83;100.00;62900.06;5105755;28;20384;-61
2022/07/21 02:56:07;;;;;;;6.40;6.10;;;;;;;-143.83;100.00;62900.06;5112899;28;20068;-61
2022/07/21 02:58:33;;;;;;;6.70;6.40;;;;;;;-143.83;100.00;62900.06;5113759;28;20011;-60
2022/07/21 03:01:01;;;;;;;6.60;6.30;;;;;;;-143.83;100.00;62900.06;5113564;27;20119;-60
2022/07/21 03:03:31;;;;;;;6.90;6.60;;;;;;;-143.83;100.00;62900.06;5125031;27;20474;-62
2022/07/21 03:05:57;;;;;;;6.80;6.50;;;;;;;-143.83;100.00;62900.06;5111543;27;20028;-62
2022/07/21 03:08:24;;;;;;;6.70;6.40;;;;;;;-143.83;100.00;62900.06;5103138;28;20088;-60
2022/07/21 03:10:49;;;;;;;6.90;6.60;;;;;;;-143.83;100.00;62900.06;5113348;28;20044;-61
2022/07/21 03:13:15;;;;;;;6.97;6.68;;;;;;;-143.83;100.00;62900.06;5111569;27;20107;-62
2022/07/21 03:15:42;;;;;;;6.78;6.47;;;;;;;-143.83;100.00;62900.06;5112458;27;20172;-60
2022/07/21 03:18:07;;;;;;;6.68;6.38;;;;;;;-143.83;100.00;62900.06;5110309;28;20024;-60
2022/07/21 03:20:36;;;;;;;6.68;6.38;;;;;;;-143.83;100.00;62900.06;5092558;28;20020;-61
2022/07/21 03:23:03;;;;;;;6.90;6.60;;;;;;;-143.83;100.00;62900.06;5100069;28;20028;-61
2022/07/21 03:25:29;;;;;;;6.65;6.35;;;;;;;-143.83;100.00;62900.06;5108233;28;20111;-61
2022/07/21 03:27:54;;;;;;;6.95;6.65;;;;;;;-143.83;100.00;62900.06;5113102;28;20108;-61
2022/07/21 03:30:21;;;;;;;6.80;6.50;;;;;;;-143.83;100.00;62900.06;5109893;27;20048;-61
2022/07/21 03:32:47;;;;;;;6.85;6.55;;;;;;;-143.83;100.00;62900.06;5106643;28;20030;-62
2022/07/21 03:35:13;;;;;;;6.90;6.60;;;;;;;-143.83;100.00;62900.06;5112993;28;20110;-61
2022/07/21 03:37:42;;;;;;;6.90;6.60;;;;;;;-143.83;100.00;62900.06;5113211;28;20019;-62
2022/07/21 03:40:09;;;;;;;6.75;6.45;;;;;;;-143.83;100.00;62900.06;5110938;27;20031;-61
2022/07/21 03:42:35;;;;;;;6.97;6.68;;;;;;;-143.83;100.00;62900.06;5106110;28;20030;-61
2022/07/21 03:45:00;;;;;;;7.03;6.72;;;;;;;-143.83;100.00;62900.06;5112550;28;20106;-61
2022/07/21 03:47:26;;;;;;;6.80;6.50;;;;;;;-143.83;100.00;62900.06;5112053;28;20066;-61
2022/07/21 03:49:51;;;;;;;6.80;6.50;;;;;;;-143.83;100.00;62900.06;5112829;27;20562;-62
2022/07/21 03:52:17;;;;;;;6.80;6.50;;;;;;;-143.83;100.00;62900.06;5112634;28;20024;-62
2022/07/21 03:54:42;;;;;;;7.05;6.75;;;;;;;-143.83;100.00;62900.06;5112463;28;20027;-61
2022/07/21 03:57:07;;;;;;;7.00;6.70;;;;;;;-143.83;100.00;62900.06;5111040;28;20031;-61
2022/07/21 03:59:33;;;;;;;6.95;6.65;;;;;;;-143.83;100.00;62900.06;5112191;28;20020;-61
2022/07/21 04:01:58;;;;;;;7.15;6.85;;;;;;;-143.83;100.00;62900.06;5115666;27;20058;-61
2022/07/21 04:04:24;;;;;;;7.10;6.80;;;;;;;-143.83;100.00;62900.06;5122619;27;20111;-61
2022/07/21 04:06:49;;;;;;;7.13;6.82;;;;;;;-143.83;100.00;62900.06;5114999;27;20046;-61
2022/07/21 04:09:17;;;;;;;7.20;6.90;;;;;;;-143.83;100.00;62900.06;5114907;27;20024;-60
2022/07/21 04:11:43;;;;;;;7.30;7.00;;;;;;;-143.83;100.00;62900.06;5107195;28;20023;-61
2022/07/21 04:14:08;;;;;;;7.15;6.85;;;;;;;-143.83;100.00;62900.06;5110170;27;20411;-61
2022/07/21 04:16:34;;;;;;;7.28;6.97;;;;;;;-143.83;100.00;62900.06;5109956;28;20054;-61
2022/07/21 04:18:59;;;;;;;7.15;6.85;;;;;;;-143.83;100.00;62900.06;5102336;28;20031;-61
2022/07/21 04:21:25;;;;;;;7.05;6.75;;;;;;;-143.83;100.00;62900.06;5108079;28;20028;-60
2022/07/21 04:23:50;;;;;;;7.20;6.90;;;;;;;-143.83;100.00;62900.06;5107240;28;20016;-61
2022/07/21 04:26:15;;;;;;;7.15;6.85;;;;;;;-143.83;100.00;62900.06;5111843;28;20077;-61
2022/07/21 04:28:41;;;;;;;7.20;6.90;;;;;;;-143.83;100.00;62900.06;5111955;28;20019;-61
2022/07/21 04:31:06;;;;;;;7.20;6.90;;;;;;;-143.83;100.00;62900.06;5111485;28;20506;-62
2022/07/21 04:33:32;;;;;;;7.13;6.82;;;;;;;-143.83;100.00;62900.06;5108952;28;20107;-61
2022/07/21 04:35:57;;;;;;;7.28;6.97;;;;;;;-143.83;100.00;62900.06;5112142;28;20483;-61
2022/07/21 04:38:23;;;;;;;7.10;6.80;;;;;;;-143.83;100.00;62900.06;5120715;27;20147;-61
2022/07/21 04:40:48;;;;;;;7.15;6.85;;;;;;;-143.83;100.00;62900.06;5114485;28;20422;-61
2022/07/21 04:43:14;;;;;;;7.00;6.70;;;;;;;-143.83;100.00;62900.06;5111979;28;20431;-60
2022/07/21 04:45:39;;;;;;;7.07;6.78;;;;;;;-143.83;100.00;62900.06;5099785;28;20391;-60
2022/07/21 04:48:05;;;;;;;7.15;6.85;;;;;;;-143.83;100.00;62900.06;5108956;28;20106;-61
2022/07/21 04:50:32;;;;;;;6.97;6.68;;;;;;;-143.83;100.00;62900.06;5102534;28;20031;-60
2022/07/21 04:52:58;;;;;;;7.00;6.70;;;;;;;-143.83;100.00;62900.06;5099512;28;20030;-61
2022/07/21 04:55:24;;;;;;;7.30;7.00;;;;;;;-143.83;100.00;62900.06;5107057;28;20522;-60
2022/07/21 04:57:52;;;;;;;7.10;6.80;;;;;;;-143.83;100.00;62900.06;5108555;28;20020;-61
2022/07/21 05:00:20;;;;;;;7.20;6.90;;;;;;;-143.83;100.00;62900.06;5095798;28;20019;-61
2022/07/21 05:02:46;;;;;;;7.10;6.80;;;;;;;-143.83;100.00;62900.06;5111001;28;20386;-60
2022/07/21 05:05:13;;;;;;;6.90;6.60;;;;;;;-143.83;100.00;62900.06;5111450;28;20432;-60
2022/07/21 05:07:38;;;;;;;6.88;6.57;;;;;;;-143.83;100.00;62900.06;5109183;28;20019;-61
2022/07/21 05:10:06;;;;;;;7.28;6.97;;;;;;;-143.83;100.00;62900.06;5114950;27;20545;-61
2022/07/21 05:12:31;;;;;;;7.30;7.00;;;;;;;-143.83;100.00;62900.06;5109972;28;20663;-61
2022/07/21 05:14:57;;;;;;;7.35;7.05;;;;;;;-143.83;100.00;62900.06;5114603;28;20023;-62
2022/07/21 05:17:22;;;;;;;7.30;7.00;;;;;;;-143.83;100.00;62900.06;5114962;28;20471;-61
2022/07/21 05:19:50;;;;;;;7.20;6.90;;;;;;;-143.83;100.00;62900.06;5103570;28;20020;-61
2022/07/21 05:22:18;;;;;;;7.43;7.13;;;;;;;-143.83;100.00;62900.06;5105549;28;20364;-61
2022/07/21 05:24:45;;;;;;;7.25;6.95;;;;;;;-143.83;100.00;62900.06;5121765;27;20024;-61
2022/07/21 05:27:11;;;;;;;7.40;7.10;;;;;;;-143.83;100.00;62900.06;5115239;28;20020;-62
2022/07/21 05:29:36;;;;;;;7.40;7.10;;;;;;;-143.83;100.00;62900.06;5103089;28;20039;-62
2022/07/21 05:32:03;;;;;;;7.22;6.93;;;;;;;-143.83;100.00;62900.06;5111793;27;20019;-61
2022/07/21 05:34:28;;;;;;;7.10;6.80;;;;;;;-143.83;100.00;62900.06;5114710;28;20427;-62
2022/07/21 05:36:54;;;;;;;7.10;6.80;;;;;;;-143.83;100.00;62900.06;5112125;27;20096;-61
2022/07/21 05:39:20;;;;;;;7.20;6.90;;;;;;;-143.83;100.00;62900.06;5109577;28;20444;-61
2022/07/21 05:41:45;;;;;;;7.13;6.82;;;;;;;-143.83;100.00;62900.06;5100968;28;20048;-60
2022/07/21 05:44:11;;;;;;;7.05;6.75;;;;;;;-143.83;100.00;62900.06;5100747;28;20031;-60
2022/07/21 05:46:36;;;;;;;7.40;7.10;;;;;;;-143.83;100.00;62900.06;5109198;28;20076;-60
2022/07/21 05:49:02;;;;;;;7.30;7.00;;;;;;;-143.83;100.00;62900.06;5111711;28;20023;-61
2022/07/21 05:51:27;;;;;;;7.20;6.90;;;;;;;-143.83;100.00;62900.06;5114889;28;20047;-61
2022/07/21 05:53:53;;;;;;;7.40;7.10;;;;;;;-143.83;100.00;62900.06;5114695;28;20770;-61
2022/07/21 05:56:18;;;;;;;7.57;7.28;;;;;;;-143.83;100.00;62900.06;5107282;28;20060;-61
2022/07/21 05:58:44;;;;;;;7.28;6.97;;;;;;;-143.83;100.00;62900.06;5114480;28;20020;-61
2022/07/21 06:01:12;;;;;;;7.43;7.13;;;;;;;-143.83;100.00;62900.06;5114651;28;20028;-61
2022/07/21 06:03:41;;;;;;;7.40;7.10;;;;;;;-143.83;100.00;62900.06;5109057;28;20081;-60
2022/07/21 06:06:08;;;;;;;7.38;7.07;;;;;;;-143.83;100.00;62900.06;5106881;28;20531;-61
2022/07/21 06:08:36;;;;;;;7.45;7.15;;;;;;;-143.83;100.00;62900.06;5114497;28;20498;-61
2022/07/21 06:11:01;;;;;;;7.20;6.90;;;;;;;-143.83;100.00;62900.06;5114144;28;20030;-61
2022/07/21 06:13:27;;;;;;;7.20;6.90;;;;;;;-143.83;100.00;62900.06;5114240;28;20015;-61
2022/07/21 06:15:52;;;;;;;7.18;6.88;;;;;;;-143.83;100.00;62900.06;5114375;28;20043;-60
2022/07/21 06:18:18;;;;;;;7.40;7.10;;;;;;;-143.83;100.00;62900.06;5127607;27;20012;-61
2022/07/21 06:20:43;;;;;;;7.22;6.93;;;;;;;-143.83;100.00;62900.06;5108005;28;20495;-60
2022/07/21 06:23:09;;;;;;;7.50;7.20;;;;;;;-143.83;100.00;62900.06;5106737;28;20440;-60
2022/07/21 06:25:35;;;;;;;7.20;6.90;;;;;;;-143.83;100.00;62900.06;5114394;28;20102;-60
2022/07/21 06:28:00;;;;;;;7.50;7.20;;;;;;;-143.83;100.00;62900.06;5101630;27;20036;-60
2022/07/21 06:30:26;;;;;;;7.30;7.00;;;;;;;-143.83;100.00;62900.06;5109922;28;20044;-60
2022/07/21 06:32:51;;;;;;;7.43;7.13;;;;;;;-143.83;100.00;62900.06;5113154;27;20393;-61
2022/07/21 06:35:17;;;;;;;7.50;7.20;;;;;;;-143.83;100.00;62900.06;5103101;28;20452;-61
2022/07/21 06:37:46;;;;;;;7.40;7.10;;;;;;;-143.83;100.00;62900.06;5105291;28;20077;-62
2022/07/21 06:40:12;;;;;;;7.30;7.00;;;;;;;-143.83;100.00;62900.06;5109130;28;20036;-61
2022/07/21 06:42:38;;;;;;;7.40;7.10;;;;;;;-143.83;100.00;62900.06;5105259;28;20020;-64
2022/07/21 06:45:04;;;;;;;7.43;7.13;;;;;;;-143.83;100.00;62900.06;5102735;28;20436;-63
2022/07/21 06:47:30;;;;;;;7.50;7.20;;;;;;;-143.83;100.00;62900.06;5110113;28;20047;-63
2022/07/21 06:49:55;;;;;;;7.22;6.93;;;;;;;-143.83;100.00;62900.06;5109911;28;20439;-64
2022/07/21 06:52:22;;;;;;;7.15;6.85;;;;;;;-143.83;100.00;62900.06;5103287;28;20051;-64
2022/07/21 06:54:47;;;;;;;7.30;7.00;;;;;;;-143.83;100.00;62900.06;5105179;28;20034;-62
2022/07/21 06:57:13;;;;;;;7.25;6.95;;;;;;;-143.83;100.00;62900.06;5110041;27;20050;-63
2022/07/21 06:59:39;;;;;;;7.38;7.07;;;;;;;-143.83;100.00;62900.06;5109916;28;20035;-63
2022/07/21 07:02:04;;;;;;;7.15;6.85;;;;;;;-143.83;100.00;62900.06;5104801;28;20027;-63
2022/07/21 07:04:30;;;;;;;7.45;7.15;;;;;;;-143.83;100.00;62900.06;5109809;28;20028;-64
2022/07/21 07:06:55;;;;;;;7.47;7.18;;;;;;;-143.83;100.00;62900.06;5109727;28;20039;-62
2022/07/21 07:09:22;;;;;;;7.13;6.82;;;;;;;-143.83;100.00;62900.06;5109569;28;20028;-64
2022/07/21 07:11:48;;;;;;;7.32;7.03;;;;;;;-143.83;100.00;62900.06;5101925;28;20027;-63
2022/07/21 07:14:13;;;;;;;7.20;6.90;;;;;;;-143.83;100.00;62900.06;5095318;27;20028;-64
2022/07/21 07:16:39;;;;;;;7.30;7.00;;;;;;;-143.83;100.00;62900.06;5100864;28;20467;-64
2022/07/21 07:19:05;;;;;;;7.28;6.97;;;;;;;-143.83;100.00;62900.06;5103102;28;20051;-64
2022/07/21 07:21:31;;;;;;;7.22;6.93;;;;;;;-143.83;100.00;62900.06;5100833;27;20629;-64
2022/07/21 07:23:56;;;;;;;7.28;6.97;;;;;;;-143.83;100.00;62900.06;5099946;28;20023;-64
2022/07/21 07:26:22;;;;;;;7.20;6.90;;;;;;;-143.83;100.00;62900.06;5097065;27;20027;-65
2022/07/21 07:28:47;;;;;;;7.25;6.95;;;;;;;-143.83;100.00;62900.06;5106827;27;20035;-65
2022/07/21 07:31:13;;;;;;;7.40;7.10;;;;;;;-143.83;100.00;62900.06;5099674;27;20088;-63
2022/07/21 07:33:38;;;;;;;7.07;6.78;;;;;;;-143.83;100.00;62900.06;5108554;27;20197;-64
2022/07/21 07:36:04;;;;;;;7.10;6.80;;;;;;;-143.83;100.00;62900.06;5107471;27;20059;-64
2022/07/21 07:38:29;;;;;;;7.50;7.20;;;;;;;-143.83;100.00;62900.06;5105000;27;20024;-64
2022/07/21 07:40:55;;;;;;;7.10;6.80;;;;;;;-143.83;100.00;62900.06;5108682;27;20052;-64
2022/07/21 07:43:20;;;;;;;7.03;6.72;;;;;;;-143.83;100.00;62900.06;5098918;27;20039;-65
2022/07/21 07:45:46;;;;;;;7.20;6.90;;;;;;;-143.83;100.00;62900.06;5109209;27;20042;-64
2022/07/21 07:48:11;;;;;;;7.30;7.00;;;;;;;-143.83;100.00;62900.06;5108879;27;20502;-65
2022/07/21 07:50:37;;;;;;;7.25;6.95;;;;;;;-143.83;100.00;62900.06;5092983;28;20113;-64
2022/07/21 07:53:02;;;;;;;7.30;7.00;;;;;;;-143.83;100.00;62900.06;5101079;27;20111;-65
2022/07/21 07:55:28;;;;;;;7.13;6.82;;;;;;;-143.83;100.00;62900.06;5103555;28;20762;-64
2022/07/21 07:57:54;;;;;;;7.18;6.88;;;;;;;-143.83;100.00;62900.06;5110814;27;20031;-64
2022/07/21 08:00:20;;;;;;;7.13;6.82;;;;;;;-143.83;100.00;62900.06;5100671;27;20032;-65
2022/07/21 08:02:45;;;;;;;7.10;6.80;;;;;;;-143.83;100.00;62900.06;5105370;28;20046;-65
2022/07/21 08:05:11;;;;;;;7.00;6.70;;;;;;;-143.83;100.00;62900.06;5098251;28;20511;-64
2022/07/21 08:07:39;;;;;;;7.20;6.90;;;;;;;-143.83;100.00;62900.06;5095184;28;20024;-65
2022/07/21 08:10:06;;;;;;;7.30;7.00;;;;;;;-143.83;100.00;62900.06;5108158;28;20020;-65
2022/07/21 08:12:31;;;;;;;7.03;6.72;;;;;;;-143.83;100.00;62900.06;5104490;28;20019;-67
2022/07/21 08:14:57;;;;;;;7.50;7.20;;;;;;;-143.83;100.00;62900.06;5105670;28;20027;-65
2022/07/21 08:17:22;;;;;;;7.22;6.93;;;;;;;-143.83;100.00;62900.06;5102877;27;20059;-64
2022/07/21 08:19:48;;;;;;;7.35;7.05;;;;;;;-143.83;100.00;62900.06;5098367;28;20024;-63
2022/07/21 08:22:13;;;;;;;7.00;6.70;;;;;;;-143.83;100.00;62900.06;5104108;28;20403;-63
2022/07/21 08:24:39;;;;;;;7.13;6.82;;;;;;;-143.83;100.00;62900.06;5105347;28;20065;-63
2022/07/21 08:27:04;;;;;;;7.35;7.05;;;;;;;-143.83;100.00;62900.06;5108274;27;20102;-62
2022/07/21 08:29:30;;;;;;;7.15;6.85;;;;;;;-143.83;100.00;62900.06;5108800;28;20024;-63
2022/07/21 08:31:55;;;;;;;7.00;6.70;;;;;;;-143.83;100.00;62900.06;5104960;28;20039;-64
2022/07/21 08:34:21;;;;;;;6.97;6.68;;;;;;;-143.83;100.00;62900.06;5103898;28;20028;-65
2022/07/21 08:36:46;;;;;;;7.30;7.00;;;;;;;-143.83;100.00;62900.06;5101174;28;20047;-64
2022/07/21 08:39:12;;;;;;;7.00;6.70;;;;;;;-143.83;100.00;62900.06;5106800;28;20027;-63
2022/07/21 08:41:40;;;;;;;6.90;6.60;;;;;;;-143.83;100.00;62900.06;5097489;28;20444;-63
2022/07/21 08:44:07;;;;;;;7.32;7.03;;;;;;;-143.83;100.00;62900.06;5106551;28;20485;-62
2022/07/21 08:46:34;;;;;;;7.22;6.93;;;;;;;-143.83;100.00;62900.06;5101324;28;20429;-63
2022/07/21 08:49:02;;;;;;;6.97;6.68;;;;;;;-143.83;100.00;62900.06;5105346;27;20023;-63
2022/07/21 08:51:33;;;;;;;7.20;6.90;;;;;;;-143.83;100.00;62900.06;5110036;27;20034;-63
2022/07/21 08:53:59;;;;;;;7.13;6.82;;;;;;;-143.83;100.00;62900.06;5102449;28;20027;-63
2022/07/21 08:56:24;;;;;;;6.97;6.68;;;;;;;-143.83;100.00;62900.06;5111576;27;20034;-63
2022/07/21 08:58:49;;;;;;;7.03;6.72;;;;;;;-143.83;100.00;62900.06;5098732;28;20077;-62
2022/07/21 09:01:15;;;;;;;7.00;6.70;;;;;;;-143.83;100.00;62900.06;5100725;28;20031;-63
2022/07/21 09:03:40;;;;;;;7.18;6.88;;;;;;;-143.83;100.00;62900.06;5107795;28;20122;-63
2022/07/21 09:06:11;;;;;;;7.20;6.90;;;;;;;-143.83;100.00;62900.06;5108406;28;20023;-63
2022/07/21 09:08:42;;;;;;;7.20;6.90;;;;;;;-143.83;100.00;62900.06;5110988;28;20111;-62
2022/07/21 09:11:18;;;;;;;7.07;6.78;;;;;;;-143.83;100.00;62900.06;5104664;27;20053;-62
2022/07/21 09:13:46;;;;;;;6.90;6.60;;;;;;;-143.83;100.00;62900.06;5104976;28;20107;-63
2022/07/21 09:16:12;;;;;;;6.90;6.60;;;;;;;-143.83;100.00;62900.06;5106092;28;20131;-62
2022/07/21 09:18:51;;;;;;;6.97;6.68;;;;;;;-143.83;100.00;62900.06;5111644;28;20095;-62
2022/07/21 09:21:18;;;;;;;7.03;6.72;;;;;;;-143.83;100.00;62900.06;5106159;28;20301;-62
2022/07/21 09:23:43;;;;;;;7.20;6.90;;;;;;;-143.83;100.00;62900.06;5098080;28;20367;-62
2022/07/21 09:26:09;;;;;;;7.05;6.75;;;;;;;-143.83;100.00;62900.06;5093136;27;20089;-63
2022/07/21 09:28:35;;;;;;;7.00;6.70;;;;;;;-143.83;100.00;62900.06;5098106;27;20089;-64
2022/07/21 09:31:09;;;;;;;6.93;6.63;;;;;;;-143.83;100.00;62900.06;5107593;28;20103;-65
2022/07/21 09:33:39;;;;;;;6.95;6.65;;;;;;;-143.83;100.00;62900.06;5100303;28;20024;-65
2022/07/21 09:36:08;;;;;;;6.75;6.45;;;;;;;-143.83;100.00;62900.06;5110139;28;20031;-64
2022/07/21 09:38:49;;;;;;;6.80;6.50;;;;;;;-143.83;100.00;62900.06;5097347;28;20456;-65
2022/07/21 09:41:19;;;;;;;7.20;6.90;;;;;;;-143.83;100.00;62900.06;5097747;28;20055;-65
2022/07/21 09:43:53;;;;;;;7.05;6.75;;;;;;;-143.83;100.00;62900.06;5100162;28;20020;-65
2022/07/21 09:46:18;;;;;;;6.97;6.68;;;;;;;-143.83;100.00;62900.06;5105256;27;20020;-66
2022/07/21 09:48:46;;;;;;;7.15;6.85;;;;;;;-143.83;100.00;62900.06;5110645;28;20043;-65
2022/07/21 09:51:33;;;;;;;6.75;6.45;;;;;;;-143.83;100.00;62900.06;5104266;28;20050;-64
2022/07/21 09:54:07;;;;;;;7.30;7.00;;;;;;;-143.83;100.00;62900.06;5100558;28;20116;-65
2022/07/21 09:56:35;;;;;;;6.93;6.63;;;;;;;-143.83;100.00;62900.06;5105487;28;20031;-65
2022/07/21 09:59:02;;;;;;;7.10;6.80;;;;;;;-143.83;100.00;62900.06;5094685;28;20035;-65
2022/07/21 10:01:29;;;;;;;7.07;6.78;;;;;;;-143.83;100.00;62900.06;5110056;28;20028;-65
2022/07/21 10:03:56;;;;;;;7.20;6.90;;;;;;;-143.83;100.00;62900.06;5110440;27;20115;-63
2022/07/21 10:06:29;;;;;;;7.00;6.70;;;;;;;-143.83;100.00;62900.06;5104419;28;20065;-65
2022/07/21 10:08:57;;;;;;;6.90;6.60;;;;;;;-143.83;100.00;62900.06;5110539;27;20091;-65
2022/07/21 10:11:23;;;;;;;7.00;6.70;;;;;;;-143.83;100.00;62900.06;5104835;28;20024;-66
2022/07/21 10:13:49;;;;;;;6.95;6.65;;;;;;;-143.83;100.00;62900.06;5103175;28;20466;-64
2022/07/21 10:16:15;;;;;;;7.18;6.88;;;;;;;-143.83;100.00;62900.06;5108825;28;20027;-65
2022/07/21 10:19:05;;;;;;;7.10;6.80;;;;;;;-143.83;100.00;62900.06;5104282;28;20031;-64
2022/07/21 10:21:59;;;;;;;7.32;7.03;;;;;;;-143.83;100.00;62900.06;5122717;27;20103;-63
2022/07/21 10:24:28;;;;;;;6.82;6.53;;;;;;;-143.83;100.00;62900.06;5100201;28;20059;-62
2022/07/21 10:27:13;;;;;;;6.82;6.53;;;;;;;-143.83;100.00;62900.06;5115092;27;20035;-62
2022/07/21 10:29:52;;;;;;;6.78;6.47;;;;;;;-143.83;100.00;62900.06;5103111;27;20028;-62
2022/07/21 10:32:47;;;;;;;6.90;6.60;;;;;;;-143.83;100.00;62900.06;5114291;27;20031;-63
2022/07/21 10:35:29;;;;;;;7.03;6.72;;;;;;;-143.83;100.00;62900.06;5102852;27;20023;-62
2022/07/21 10:37:55;;;;;;;6.80;6.50;;;;;;;-143.83;100.00;62900.06;5109383;27;20102;-63
2022/07/21 10:40:20;;;;;;;6.80;6.50;;;;;;;-143.83;100.00;62900.06;5109406;27;20240;-62
2022/07/21 10:43:05;;;;;;;6.90;6.60;;;;;;;-143.83;100.00;62900.06;5119257;27;20041;-63
2022/07/21 10:45:33;;;;;;;6.82;6.53;;;;;;;-143.83;100.00;62900.06;5103109;27;20113;-63
2022/07/21 10:48:00;;;;;;;7.00;6.70;;;;;;;-143.83;100.00;62900.06;5108422;28;20024;-63
2022/07/21 10:50:35;;;;;;;7.10;6.80;;;;;;;-143.83;100.00;62900.06;5112662;27;20023;-61
2022/07/21 10:53:05;;;;;;;7.20;6.90;;;;;;;-143.83;100.00;62900.06;5107878;28;20031;-63
2022/07/21 10:55:47;;;;;;;6.93;6.63;;;;;;;-143.83;100.00;62900.06;5107396;28;20632;-63
2022/07/21 10:58:15;;;;;;;6.78;6.47;;;;;;;-143.83;100.00;62900.06;5109463;28;20031;-63
2022/07/21 11:00:49;;;;;;;6.93;6.63;;;;;;;-143.83;100.00;62900.06;5106907;28;20035;-63
2022/07/21 11:03:17;;;;;;;;;;;;;;;-143.83;100.00;62900.06;5094522;28;20028;-65
2022/07/21 11:06:27;;;;;;;7.00;6.70;;;;;;;-143.83;100.00;62900.06;5102793;28;19916;-63
2022/07/21 11:09:05;;;;;;;7.10;6.80;;;;;;;-143.83;100.00;62900.06;5096235;28;20043;-62
2022/07/21 11:11:33;;;;;;;7.05;6.75;;;;;;;-143.83;100.00;62900.06;5109749;27;20110;-62